Time;durP1;ratioP1;P1;durP2;ratioP2;P2;SDS_P1;SDS_P2;PMS_P1;PMS_P2;Temp;Humidity;BMP_temperature;BMP_pressure;BME280_temperature;BME280_humidity;BME280_pressure;Samples;Min_cycle;Max_cycle;Signal;HPM_P1;HPM_P2
2023/05/06 00:00:00;;;;;;;26.88;12.05;;;10.70;99.90;;;;;;5040126;28;20071;-70
2023/05/06 00:02:28;;;;;;;23.40;12.57;;;10.80;99.90;;;;;;5059609;28;20165;-70
2023/05/06 00:04:54;;;;;;;28.73;13.02;;;10.90;99.90;;;;;;5057414;28;20123;-70
2023/05/06 00:07:20;;;;;;;23.02;12.13;;;11.00;99.90;;;;;;5058812;28;20136;-69
2023/05/06 00:09:46;;;;;;;29.52;12.32;;;11.00;99.90;;;;;;5058960;28;20220;-70
2023/05/06 00:12:12;;;;;;;26.75;12.40;;;11.00;99.90;;;;;;5039897;28;20032;-70
2023/05/06 00:14:38;;;;;;;28.25;12.10;;;11.10;99.90;;;;;;5057889;28;20040;-70
2023/05/06 00:17:03;;;;;;;25.65;12.77;;;11.10;99.90;;;;;;5057611;28;20032;-70
2023/05/06 00:19:29;;;;;;;29.45;13.57;;;11.20;99.90;;;;;;5040210;28;21036;-70
2023/05/06 00:21:54;;;;;;;28.10;12.85;;;11.30;99.90;;;;;;5059247;28;20189;-70
2023/05/06 00:24:20;;;;;;;24.25;13.18;;;11.30;99.90;;;;;;5056561;28;20028;-70
2023/05/06 00:26:46;;;;;;;26.52;11.57;;;11.40;99.90;;;;;;5055646;28;20373;-70
2023/05/06 00:29:11;;;;;;;27.65;12.68;;;11.50;99.90;;;;;;5076659;28;20046;-70
2023/05/06 00:31:37;;;;;;;23.75;11.85;;;11.50;99.90;;;;;;5059134;28;20559;-69
2023/05/06 00:34:02;;;;;;;25.08;11.70;;;11.60;99.90;;;;;;5058255;28;20016;-70
2023/05/06 00:36:28;;;;;;;27.30;11.77;;;11.70;99.90;;;;;;5058485;28;20069;-70
2023/05/06 00:38:54;;;;;;;24.95;10.75;;;11.70;99.90;;;;;;5040584;28;20036;-70
2023/05/06 00:41:20;;;;;;;23.55;12.38;;;11.80;99.90;;;;;;5055248;28;20259;-70
2023/05/06 00:43:45;;;;;;;22.95;11.38;;;11.60;99.90;;;;;;5058976;28;20032;-70
2023/05/06 00:46:14;;;;;;;23.17;10.75;;;11.60;99.90;;;;;;5063738;28;20108;-69
2023/05/06 00:48:41;;;;;;;25.75;10.93;;;11.60;99.90;;;;;;5057823;28;20059;-69
2023/05/06 00:51:07;;;;;;;26.38;11.68;;;11.60;99.90;;;;;;5058657;28;20048;-70
2023/05/06 00:53:32;;;;;;;27.40;10.82;;;11.60;99.90;;;;;;5057240;28;20083;-70
2023/05/06 00:55:59;;;;;;;24.88;11.13;;;11.70;99.90;;;;;;5057314;28;20273;-69
2023/05/06 00:58:25;;;;;;;31.10;12.25;;;11.80;99.90;;;;;;5058989;28;20082;-70
2023/05/06 01:00:51;;;;;;;23.83;11.00;;;11.80;99.90;;;;;;5050923;28;20049;-69
2023/05/06 01:03:17;;;;;;;22.92;11.43;;;11.70;99.90;;;;;;5061185;28;20433;-69
2023/05/06 01:06:08;;;;;;;23.30;11.32;;;11.70;99.90;;;;;;5055477;28;20028;-70
2023/05/06 01:08:43;;;;;;;22.38;10.30;;;11.80;99.90;;;;;;5048033;28;20392;-70
2023/05/06 01:11:17;;;;;;;21.23;10.63;;;11.80;99.90;;;;;;5057212;28;20499;-70
2023/05/06 01:14:05;;;;;;;25.00;10.98;;;11.90;99.90;;;;;;5055208;28;20043;-70
2023/05/06 01:16:33;;;;;;;21.23;10.02;;;11.90;99.90;;;;;;5057001;28;20467;-70
2023/05/06 01:18:59;;;;;;;26.08;10.63;;;11.90;99.90;;;;;;5050558;28;20068;-70
2023/05/06 01:21:33;;;;;;;21.35;10.90;;;12.00;99.90;;;;;;5046273;28;20129;-70
2023/05/06 01:23:59;;;;;;;25.10;10.82;;;12.00;99.90;;;;;;5057185;28;20094;-69
2023/05/06 01:26:26;;;;;;;24.95;11.73;;;12.00;99.90;;;;;;5057730;28;20027;-70
2023/05/06 01:28:52;;;;;;;21.27;9.88;;;12.00;99.90;;;;;;5056191;28;20020;-70
2023/05/06 01:31:43;;;;;;;21.85;9.68;;;12.10;99.90;;;;;;5052443;28;20056;-69
2023/05/06 01:34:24;;;;;;;19.45;9.13;;;12.10;99.90;;;;;;5050157;28;20021;-70
2023/05/06 01:36:52;;;;;;;19.92;10.88;;;12.20;99.90;;;;;;5055210;28;20036;-70
2023/05/06 01:39:23;;;;;;;21.45;10.35;;;12.20;99.90;;;;;;5056172;28;20048;-69
2023/05/06 01:41:50;;;;;;;;;;;12.20;99.90;;;;;;5057315;28;20512;-70
2023/05/06 01:44:17;;;;;;;16.05;8.38;;;12.20;99.90;;;;;;5058162;28;19921;-70
2023/05/06 01:46:44;;;;;;;21.52;9.70;;;12.10;99.90;;;;;;5057837;28;20027;-70
2023/05/06 01:49:10;;;;;;;22.55;9.85;;;12.10;99.90;;;;;;5050456;28;20565;-70
2023/05/06 01:51:37;;;;;;;19.92;9.07;;;12.00;99.90;;;;;;5043675;28;20043;-70
2023/05/06 01:54:03;;;;;;;20.75;9.40;;;12.00;99.90;;;;;;5071787;28;20073;-70
2023/05/06 01:56:29;;;;;;;17.98;8.68;;;11.90;99.90;;;;;;5041601;28;20041;-69
2023/05/06 01:58:56;;;;;;;21.98;9.20;;;11.90;99.90;;;;;;5053486;28;20097;-70
2023/05/06 02:01:22;;;;;;;26.88;10.02;;;11.90;99.90;;;;;;5053325;28;20159;-70
2023/05/06 02:03:47;;;;;;;17.20;9.25;;;11.90;99.90;;;;;;5053346;28;20531;-69
2023/05/06 02:06:13;;;;;;;21.85;9.52;;;11.90;99.90;;;;;;5051582;28;20024;-69
2023/05/06 02:08:42;;;;;;;18.63;9.10;;;11.90;99.90;;;;;;5050869;28;20611;-69
2023/05/06 02:11:08;;;;;;;25.50;9.70;;;11.90;99.90;;;;;;5054097;28;20088;-69
2023/05/06 02:13:33;;;;;;;22.20;9.77;;;11.80;99.90;;;;;;5053046;28;20061;-69
2023/05/06 02:15:59;;;;;;;20.08;9.15;;;11.80;99.90;;;;;;5050756;28;20033;-69
2023/05/06 02:18:25;;;;;;;23.02;9.50;;;11.90;99.90;;;;;;5054179;28;20539;-70
2023/05/06 02:20:50;;;;;;;19.75;9.48;;;11.90;99.90;;;;;;5056423;28;20616;-69
2023/05/06 02:23:16;;;;;;;18.17;9.70;;;11.90;99.90;;;;;;5057072;28;20068;-70
2023/05/06 02:25:42;;;;;;;19.55;9.57;;;11.90;99.90;;;;;;5054455;28;20103;-70
2023/05/06 02:28:07;;;;;;;21.35;10.20;;;11.90;99.90;;;;;;5072307;28;20495;-70
2023/05/06 02:30:34;;;;;;;20.83;9.05;;;11.60;99.90;;;;;;5054195;28;20036;-69
2023/05/06 02:32:59;;;;;;;22.58;9.00;;;11.50;99.90;;;;;;5046021;28;20060;-70
2023/05/06 02:35:25;;;;;;;19.88;9.30;;;11.40;99.90;;;;;;5052198;28;20698;-69
2023/05/06 02:37:51;;;;;;;15.60;8.65;;;11.30;99.90;;;;;;5053432;28;20652;-69
2023/05/06 02:40:16;;;;;;;19.08;9.65;;;11.20;99.90;;;;;;5053123;28;20156;-69
2023/05/06 02:42:42;;;;;;;19.60;9.10;;;11.30;99.90;;;;;;5055385;28;20098;-70
2023/05/06 02:45:08;;;;;;;18.23;8.48;;;11.30;99.90;;;;;;5056246;28;20032;-69
2023/05/06 02:47:34;;;;;;;15.20;7.97;;;11.40;99.90;;;;;;5057012;28;20224;-69
2023/05/06 02:49:59;;;;;;;20.15;9.68;;;11.40;99.90;;;;;;5052967;28;20736;-70
2023/05/06 02:52:25;;;;;;;19.48;9.30;;;11.30;99.90;;;;;;5054311;28;20063;-69
2023/05/06 02:54:51;;;;;;;16.92;9.05;;;11.40;99.90;;;;;;5052998;28;20405;-69
2023/05/06 02:57:16;;;;;;;26.75;9.65;;;11.40;99.90;;;;;;5054271;28;20032;-69
2023/05/06 02:59:42;;;;;;;19.25;9.15;;;11.40;99.90;;;;;;5053697;28;20081;-70
2023/05/06 03:02:07;;;;;;;17.85;8.80;;;11.40;99.90;;;;;;5074407;28;20028;-70
2023/05/06 03:04:33;;;;;;;20.83;9.60;;;11.40;99.90;;;;;;5057160;28;20043;-70
2023/05/06 03:06:59;;;;;;;17.70;9.45;;;11.40;99.90;;;;;;5058037;28;20095;-70
2023/05/06 03:09:24;;;;;;;18.30;9.98;;;11.30;99.90;;;;;;5058963;28;20024;-70
2023/05/06 03:11:50;;;;;;;18.67;9.95;;;11.30;99.90;;;;;;5061170;28;20024;-70
2023/05/06 03:14:16;;;;;;;19.17;9.65;;;11.30;99.90;;;;;;5059741;28;20113;-70
2023/05/06 03:16:41;;;;;;;16.85;9.30;;;11.30;99.90;;;;;;5058969;28;20081;-70
2023/05/06 03:19:07;;;;;;;20.30;9.32;;;11.30;99.90;;;;;;5059998;28;20063;-70
2023/05/06 03:21:32;;;;;;;17.88;9.60;;;11.30;99.90;;;;;;5059474;28;20210;-69
2023/05/06 03:23:58;;;;;;;22.40;9.32;;;11.30;99.90;;;;;;5058988;28;20033;-70
2023/05/06 03:26:24;;;;;;;14.07;9.10;;;11.30;99.90;;;;;;5059763;28;20036;-70
2023/05/06 03:28:50;;;;;;;16.05;8.73;;;11.30;99.90;;;;;;5056835;28;20506;-70
2023/05/06 03:31:15;;;;;;;18.38;9.48;;;11.30;99.90;;;;;;5058421;28;20168;-70
2023/05/06 03:33:41;;;;;;;24.23;9.88;;;11.20;99.90;;;;;;5057625;28;20035;-70
2023/05/06 03:36:07;;;;;;;18.80;8.98;;;11.30;99.90;;;;;;5076674;28;20170;-70
2023/05/06 03:38:32;;;;;;;22.20;10.40;;;11.30;99.90;;;;;;5058358;28;20486;-69
2023/05/06 03:40:58;;;;;;;21.08;10.52;;;11.30;99.90;;;;;;5042069;28;20036;-70
2023/05/06 03:43:24;;;;;;;20.88;10.80;;;11.30;99.90;;;;;;5060502;28;20123;-70
2023/05/06 03:45:49;;;;;;;19.10;10.45;;;11.30;99.90;;;;;;5059651;28;20510;-70
2023/05/06 03:48:15;;;;;;;20.63;9.95;;;11.20;99.90;;;;;;5039677;28;20033;-70
2023/05/06 03:50:41;;;;;;;18.13;10.25;;;11.20;99.90;;;;;;5059809;28;20020;-70
2023/05/06 03:53:07;;;;;;;24.00;11.73;;;11.30;99.90;;;;;;5059112;28;20592;-70
2023/05/06 03:55:33;;;;;;;28.98;13.30;;;11.30;99.90;;;;;;5059529;28;20133;-69
2023/05/06 03:57:59;;;;;;;30.75;13.65;;;11.30;99.90;;;;;;5058392;28;20119;-69
2023/05/06 04:00:25;;;;;;;25.92;12.43;;;11.30;99.90;;;;;;5057788;28;20450;-70
2023/05/06 04:02:50;;;;;;;23.90;12.75;;;11.30;99.90;;;;;;5056156;28;20028;-70
2023/05/06 04:05:16;;;;;;;27.70;14.25;;;11.30;99.90;;;;;;5058936;28;20033;-70
2023/05/06 04:07:42;;;;;;;27.67;13.40;;;11.20;99.90;;;;;;5059580;28;20028;-70
2023/05/06 04:10:08;;;;;;;25.70;12.75;;;11.00;99.90;;;;;;5077875;28;20479;-70
2023/05/06 04:12:33;;;;;;;26.90;13.27;;;11.00;99.90;;;;;;5040584;28;20545;-70
2023/05/06 04:14:59;;;;;;;31.55;13.88;;;10.80;99.90;;;;;;5058834;28;20045;-70
2023/05/06 04:17:25;;;;;;;24.27;13.38;;;10.70;99.90;;;;;;5053945;28;20037;-69
2023/05/06 04:19:52;;;;;;;26.05;12.25;;;10.60;99.90;;;;;;5053942;28;20040;-70
2023/05/06 04:22:18;;;;;;;31.10;12.80;;;10.70;99.90;;;;;;5058828;28;20476;-70
2023/05/06 04:24:44;;;;;;;26.90;13.77;;;10.70;99.90;;;;;;5060182;28;20106;-70
2023/05/06 04:27:10;;;;;;;29.85;13.85;;;10.80;99.90;;;;;;5030973;28;20086;-69
2023/05/06 04:29:36;;;;;;;27.42;14.50;;;10.70;99.90;;;;;;5058214;28;20042;-69
2023/05/06 04:32:02;;;;;;;36.38;15.25;;;10.80;99.90;;;;;;5036346;28;20044;-69
2023/05/06 04:34:28;;;;;;;31.20;15.15;;;10.80;99.90;;;;;;5054487;28;20317;-69
2023/05/06 04:36:53;;;;;;;32.22;15.90;;;10.90;99.90;;;;;;5055054;28;20026;-69
2023/05/06 04:39:19;;;;;;;32.33;15.80;;;10.90;99.90;;;;;;5056914;28;20044;-70
2023/05/06 04:41:45;;;;;;;29.05;15.35;;;11.00;99.90;;;;;;5041176;28;20025;-70
2023/05/06 04:44:11;;;;;;;32.00;15.43;;;11.10;99.90;;;;;;5063460;28;20089;-70
2023/05/06 04:46:37;;;;;;;35.15;16.38;;;11.20;99.90;;;;;;5056458;28;20503;-70
2023/05/06 04:49:02;;;;;;;32.72;16.45;;;11.30;99.90;;;;;;5056948;28;20028;-70
2023/05/06 04:51:28;;;;;;;31.55;16.13;;;11.40;99.90;;;;;;5059371;28;20032;-70
2023/05/06 04:53:54;;;;;;;30.08;16.20;;;11.40;99.90;;;;;;5059198;28;20218;-70
2023/05/06 04:56:20;;;;;;;30.67;17.65;;;11.50;99.90;;;;;;5058270;28;20036;-70
2023/05/06 04:58:45;;;;;;;33.45;17.70;;;11.50;99.90;;;;;;5033457;28;20040;-70
2023/05/06 05:01:11;;;;;;;33.03;16.60;;;11.60;99.90;;;;;;5056622;28;20103;-70
2023/05/06 05:03:36;;;;;;;30.08;17.17;;;11.60;99.90;;;;;;5055096;28;20122;-70
2023/05/06 05:06:02;;;;;;;32.92;16.92;;;11.80;99.90;;;;;;5054384;28;20028;-70
2023/05/06 05:08:28;;;;;;;29.65;16.45;;;11.70;99.90;;;;;;5055757;28;20036;-71
2023/05/06 05:10:53;;;;;;;35.80;17.13;;;11.70;99.90;;;;;;5055568;28;20078;-70
2023/05/06 05:13:20;;;;;;;31.80;16.48;;;11.70;99.90;;;;;;5052574;28;20038;-70
2023/05/06 05:15:45;;;;;;;27.77;16.42;;;11.70;99.90;;;;;;5052651;28;20050;-70
2023/05/06 05:18:11;;;;;;;35.58;17.27;;;11.80;99.90;;;;;;5053267;28;20368;-70
2023/05/06 05:20:37;;;;;;;30.83;16.77;;;11.80;99.90;;;;;;5053375;28;20052;-70
2023/05/06 05:23:03;;;;;;;30.40;16.73;;;12.00;99.90;;;;;;5054070;28;20456;-71
2023/05/06 05:25:28;;;;;;;35.50;16.67;;;12.10;99.90;;;;;;5055445;28;20028;-70
2023/05/06 05:27:54;;;;;;;34.28;17.30;;;12.30;99.90;;;;;;5054453;28;20323;-70
2023/05/06 05:30:20;;;;;;;33.40;16.58;;;12.40;99.90;;;;;;5053644;28;20460;-70
2023/05/06 05:32:45;;;;;;;27.63;16.13;;;12.60;99.90;;;;;;5056163;28;20138;-70
2023/05/06 05:35:11;;;;;;;32.28;16.30;;;12.80;99.90;;;;;;5058710;28;20063;-70
2023/05/06 05:37:36;;;;;;;29.10;16.27;;;12.90;99.90;;;;;;5048499;28;20361;-70
2023/05/06 05:40:03;;;;;;;28.33;15.45;;;13.10;99.90;;;;;;5038328;28;20029;-70
2023/05/06 05:42:32;;;;;;;26.33;15.38;;;13.10;99.90;;;;;;5047446;28;20161;-70
2023/05/06 05:44:59;;;;;;;27.27;15.18;;;13.20;99.90;;;;;;5056476;28;20024;-70
2023/05/06 05:47:25;;;;;;;28.83;15.45;;;13.20;99.90;;;;;;5057188;28;20035;-70
2023/05/06 05:49:50;;;;;;;25.30;14.57;;;13.30;99.90;;;;;;5056042;28;20032;-70
2023/05/06 05:52:16;;;;;;;26.95;15.63;;;13.40;99.90;;;;;;5037437;28;20484;-70
2023/05/06 05:54:42;;;;;;;26.65;15.10;;;13.50;99.90;;;;;;5057096;28;20028;-71
2023/05/06 05:57:07;;;;;;;27.92;15.02;;;13.50;99.90;;;;;;5058311;28;20403;-71
2023/05/06 05:59:33;;;;;;;28.23;15.00;;;13.60;99.90;;;;;;5056528;28;20088;-70
2023/05/06 06:01:59;;;;;;;28.92;16.70;;;13.70;99.90;;;;;;5027610;28;20515;-70
2023/05/06 06:04:24;;;;;;;31.90;16.58;;;13.70;99.90;;;;;;5048418;28;20100;-71
2023/05/06 06:06:50;;;;;;;26.60;15.15;;;13.80;99.90;;;;;;5048454;28;20144;-70
2023/05/06 06:09:16;;;;;;;28.38;15.55;;;13.80;99.90;;;;;;5045256;28;20121;-70
2023/05/06 06:11:41;;;;;;;28.17;16.00;;;13.90;99.90;;;;;;5055660;28;20028;-70
2023/05/06 06:14:07;;;;;;;27.17;15.45;;;14.10;99.90;;;;;;5053800;28;20024;-70
2023/05/06 06:16:35;;;;;;;30.90;15.90;;;14.30;99.90;;;;;;5049827;28;20070;-70
2023/05/06 06:19:00;;;;;;;36.33;16.17;;;14.50;99.90;;;;;;5050918;28;20512;-70
2023/05/06 06:21:26;;;;;;;29.23;15.52;;;14.50;99.90;;;;;;5037225;28;20052;-70
2023/05/06 06:23:52;;;;;;;30.33;15.52;;;14.50;99.90;;;;;;5052153;28;20044;-70
2023/05/06 06:26:17;;;;;;;27.88;15.15;;;14.60;99.90;;;;;;5053118;28;20572;-71
2023/05/06 06:28:43;;;;;;;26.08;14.10;;;14.50;99.90;;;;;;5052365;28;20032;-70
2023/05/06 06:31:09;;;;;;;31.75;16.02;;;14.50;99.90;;;;;;5053073;28;20535;-70
2023/05/06 06:33:35;;;;;;;26.80;15.23;;;14.40;99.90;;;;;;5053699;28;20384;-71
2023/05/06 06:36:01;;;;;;;32.08;15.15;;;14.40;99.90;;;;;;5053712;28;20169;-70
2023/05/06 06:38:26;;;;;;;30.92;15.73;;;14.50;99.90;;;;;;5038785;28;20562;-70
2023/05/06 06:40:52;;;;;;;30.27;16.63;;;14.40;99.90;;;;;;5059924;28;20028;-71
2023/05/06 06:43:22;;;;;;;27.58;15.63;;;14.40;99.90;;;;;;5058612;28;20036;-70
2023/05/06 06:45:48;;;;;;;29.13;15.32;;;14.40;99.90;;;;;;5055035;28;20244;-70
2023/05/06 06:48:15;;;;;;;27.42;15.23;;;14.30;99.90;;;;;;5058484;28;20063;-70
2023/05/06 06:50:41;;;;;;;25.90;14.48;;;14.20;99.90;;;;;;5060616;28;20063;-70
2023/05/06 06:53:06;;;;;;;25.80;15.02;;;14.20;99.90;;;;;;5060069;28;20468;-70
2023/05/06 06:55:32;;;;;;;25.23;14.82;;;14.10;99.90;;;;;;5059397;28;20085;-69
2023/05/06 06:57:57;;;;;;;27.98;15.35;;;14.10;99.90;;;;;;5049682;28;20116;-70
2023/05/06 07:00:23;;;;;;;27.98;14.70;;;14.00;99.90;;;;;;5079259;28;20499;-70
2023/05/06 07:02:49;;;;;;;26.42;14.23;;;14.00;99.90;;;;;;5053464;28;20121;-70
2023/05/06 07:05:14;;;;;;;24.13;13.52;;;14.00;99.90;;;;;;5039666;28;20032;-70
2023/05/06 07:07:40;;;;;;;26.88;14.05;;;14.00;99.90;;;;;;5041335;28;20070;-70
2023/05/06 07:10:07;;;;;;;24.70;13.75;;;14.00;99.90;;;;;;5056995;28;20035;-70
2023/05/06 07:12:32;;;;;;;30.10;13.85;;;14.00;99.90;;;;;;5058261;28;20492;-70
2023/05/06 07:14:58;;;;;;;21.40;12.57;;;14.10;99.90;;;;;;5046717;28;20029;-70
2023/05/06 07:17:24;;;;;;;22.60;11.73;;;14.10;99.90;;;;;;5056217;28;20066;-70
2023/05/06 07:19:49;;;;;;;25.95;11.10;;;14.20;99.90;;;;;;5050590;28;20047;-70
2023/05/06 07:22:15;;;;;;;19.75;10.05;;;14.30;99.90;;;;;;5052091;28;20039;-70
2023/05/06 07:24:40;;;;;;;15.95;8.63;;;14.40;99.90;;;;;;5048105;28;20024;-71
2023/05/06 07:27:06;;;;;;;16.48;8.27;;;14.60;99.90;;;;;;5045606;28;20595;-70
2023/05/06 07:29:33;;;;;;;17.75;7.28;;;14.80;99.90;;;;;;5031045;28;20040;-71
2023/05/06 07:31:59;;;;;;;17.25;6.32;;;15.00;99.90;;;;;;5045735;28;20064;-71
2023/05/06 07:34:25;;;;;;;12.82;6.25;;;15.10;99.90;;;;;;5042368;28;20074;-71
2023/05/06 07:36:50;;;;;;;11.32;6.00;;;15.20;99.90;;;;;;5056683;28;20270;-71
2023/05/06 07:39:16;;;;;;;15.07;5.47;;;15.40;99.90;;;;;;5055722;28;20452;-70
2023/05/06 07:41:42;;;;;;;12.32;5.03;;;15.50;99.90;;;;;;5059900;28;20056;-70
2023/05/06 07:44:07;;;;;;;11.30;5.03;;;15.60;99.90;;;;;;5039419;28;20031;-70
2023/05/06 07:46:33;;;;;;;15.75;5.13;;;15.70;99.90;;;;;;5057554;28;20032;-71
2023/05/06 07:48:59;;;;;;;16.30;4.75;;;15.90;99.90;;;;;;5059123;28;20064;-70
2023/05/06 07:51:25;;;;;;;11.30;4.22;;;15.90;99.90;;;;;;5052230;28;20082;-71
2023/05/06 07:53:51;;;;;;;15.88;4.68;;;16.00;99.90;;;;;;5056267;28;20028;-71
2023/05/06 07:56:17;;;;;;;15.00;5.25;;;16.10;99.90;;;;;;5041321;28;20024;-70
2023/05/06 07:58:42;;;;;;;13.25;4.18;;;16.20;99.90;;;;;;5036080;28;20040;-70
2023/05/06 08:01:08;;;;;;;11.60;4.18;;;16.20;99.90;;;;;;5053032;28;20361;-71
2023/05/06 08:03:34;;;;;;;18.15;4.25;;;16.20;99.90;;;;;;5044938;28;20028;-70
2023/05/06 08:06:00;;;;;;;11.32;3.83;;;16.20;99.90;;;;;;5043639;28;20504;-70
2023/05/06 08:08:26;;;;;;;12.88;4.20;;;16.30;99.90;;;;;;5047566;28;20028;-73
2023/05/06 08:10:56;;;;;;;11.00;4.00;;;16.50;99.90;;;;;;5048948;28;20055;-76
2023/05/06 08:13:22;;;;;;;13.25;4.47;;;16.60;99.90;;;;;;5036307;28;20131;-74
2023/05/06 08:15:48;;;;;;;14.15;3.78;;;16.80;99.90;;;;;;5052358;28;20039;-71
2023/05/06 08:18:13;;;;;;;10.85;3.35;;;16.80;99.90;;;;;;5049934;28;20135;-75
2023/05/06 08:20:39;;;;;;;8.82;3.67;;;16.90;99.90;;;;;;5032695;28;20269;-74
2023/05/06 08:23:05;;;;;;;12.60;3.65;;;16.70;99.90;;;;;;5033430;28;20028;-71
2023/05/06 08:25:30;;;;;;;14.60;4.00;;;16.60;99.90;;;;;;5049572;28;20033;-70
2023/05/06 08:27:56;;;;;;;15.35;4.22;;;16.40;99.90;;;;;;5050419;28;20100;-72
2023/05/06 08:30:22;;;;;;;13.38;4.05;;;16.50;99.90;;;;;;5050557;28;20473;-71
2023/05/06 08:32:47;;;;;;;13.73;3.47;;;16.50;99.90;;;;;;5044541;28;20144;-70
2023/05/06 08:35:13;;;;;;;11.50;3.25;;;16.50;99.90;;;;;;5051854;28;20030;-71
2023/05/06 08:37:40;;;;;;;13.88;3.83;;;16.40;99.90;;;;;;5054101;28;20301;-71
2023/05/06 08:40:20;;;;;;;13.73;3.10;;;16.40;99.90;;;;;;5050662;28;20031;-71
2023/05/06 08:42:47;;;;;;;12.57;2.70;;;16.40;99.90;;;;;;5050022;28;20024;-71
2023/05/06 08:45:17;;;;;;;13.15;3.10;;;16.30;99.90;;;;;;4352234;28;10000739;-71
2023/05/06 08:47:43;;;;;;;11.85;2.90;;;16.60;99.90;;;;;;5048095;28;20028;-70
2023/05/06 08:50:09;;;;;;;14.02;2.60;;;16.90;99.90;;;;;;5028796;28;20052;-71
2023/05/06 08:52:36;;;;;;;9.63;2.75;;;17.30;99.90;;;;;;5048272;28;20028;-71
2023/05/06 08:55:04;;;;;;;9.77;2.20;;;17.50;99.90;;;;;;5047400;28;20100;-70
2023/05/06 08:57:33;;;;;;;7.97;2.33;;;17.50;99.90;;;;;;5049860;28;20037;-71
2023/05/06 08:59:59;;;;;;;11.05;2.28;;;17.40;99.90;;;;;;5044948;28;20050;-70
2023/05/06 09:02:25;;;;;;;9.90;2.22;;;17.20;99.90;;;;;;5047760;28;20643;-71
2023/05/06 09:04:52;;;;;;;13.60;2.60;;;17.00;99.90;;;;;;5045154;28;20036;-71
2023/05/06 09:07:20;;;;;;;11.55;2.60;;;17.20;99.90;;;;;;5051177;28;20029;-71
2023/05/06 09:09:46;;;;;;;9.43;2.80;;;17.30;99.90;;;;;;5041652;28;20484;-70
2023/05/06 09:12:13;;;;;;;11.70;2.00;;;17.20;99.90;;;;;;5037763;28;20105;-71
2023/05/06 09:14:39;;;;;;;10.15;2.47;;;16.70;99.90;;;;;;5047977;28;20028;-71
2023/05/06 09:17:26;;;;;;;9.98;2.05;;;16.60;99.90;;;;;;5046052;28;20112;-71
2023/05/06 09:19:53;;;;;;;15.15;2.20;;;16.20;99.90;;;;;;5047027;28;20036;-71
2023/05/06 09:22:26;;;;;;;13.63;2.28;;;15.80;99.90;;;;;;5049759;28;20569;-71
2023/05/06 09:24:56;;;;;;;8.82;2.00;;;15.80;99.90;;;;;;5049913;28;20069;-71
2023/05/06 09:27:22;;;;;;;12.15;1.73;;;15.80;99.90;;;;;;5050300;28;20400;-70
2023/05/06 09:30:07;;;;;;;11.93;2.15;;;15.90;99.90;;;;;;5046219;28;20070;-71
2023/05/06 09:32:33;;;;;;;12.50;2.38;;;15.70;99.90;;;;;;5049566;28;20036;-71
2023/05/06 09:35:00;;;;;;;13.18;2.33;;;15.60;99.90;;;;;;5048916;28;20073;-71
2023/05/06 09:37:26;;;;;;;10.60;1.88;;;15.40;99.90;;;;;;5048480;28;20028;-71
2023/05/06 09:39:56;;;;;;;12.45;2.28;;;15.30;99.90;;;;;;5052100;28;20171;-71
2023/05/06 09:42:24;;;;;;;11.93;2.20;;;15.40;99.90;;;;;;5051388;28;20506;-70
2023/05/06 09:44:52;;;;;;;9.25;2.00;;;15.60;99.90;;;;;;5052618;28;20028;-71
2023/05/06 09:47:19;;;;;;;12.15;2.30;;;15.70;99.90;;;;;;5049148;28;20492;-71
2023/05/06 09:49:45;;;;;;;9.15;1.98;;;15.70;99.90;;;;;;5049238;28;20161;-70
2023/05/06 09:52:11;;;;;;;14.07;2.22;;;15.60;99.90;;;;;;5046515;28;20422;-71
2023/05/06 09:54:38;;;;;;;10.02;1.98;;;15.70;99.90;;;;;;5049499;28;20036;-71
2023/05/06 09:57:04;;;;;;;11.18;1.73;;;15.70;99.90;;;;;;5052479;28;20032;-70
2023/05/06 09:59:30;;;;;;;8.90;1.80;;;15.70;99.90;;;;;;5051705;28;20406;-70
2023/05/06 10:01:58;;;;;;;9.63;2.08;;;15.50;99.90;;;;;;5052117;28;20021;-70
2023/05/06 10:04:25;;;;;;;10.77;2.08;;;15.50;99.90;;;;;;5052023;28;20337;-70
2023/05/06 10:06:55;;;;;;;10.55;2.03;;;15.30;99.90;;;;;;5054068;28;20031;-71
2023/05/06 10:09:23;;;;;;;11.93;1.83;;;15.10;99.90;;;;;;5048488;28;20033;-70
2023/05/06 10:11:51;;;;;;;10.50;2.00;;;14.90;99.90;;;;;;5034870;28;20028;-70
2023/05/06 10:14:17;;;;;;;11.95;2.20;;;14.80;99.90;;;;;;5052377;28;20025;-70
2023/05/06 10:16:45;;;;;;;11.43;2.50;;;14.70;99.90;;;;;;5058523;28;20050;-70
2023/05/06 10:19:13;;;;;;;6.97;1.60;;;14.60;99.90;;;;;;5058639;28;20966;-72
2023/05/06 10:21:41;;;;;;;7.35;1.80;;;14.70;99.90;;;;;;5058483;28;20048;-70
2023/05/06 10:24:10;;;;;;;8.55;1.95;;;14.70;99.90;;;;;;5061129;28;20028;-71
2023/05/06 10:26:37;;;;;;;9.80;2.00;;;14.80;99.90;;;;;;5059841;28;20157;-71
2023/05/06 10:29:07;;;;;;;9.55;2.08;;;14.90;99.90;;;;;;5038929;28;20033;-70
2023/05/06 10:31:34;;;;;;;8.07;2.00;;;14.80;99.90;;;;;;5059537;28;20075;-70
2023/05/06 10:34:03;;;;;;;4.65;1.70;;;14.80;99.90;;;;;;5060268;28;20025;-70
2023/05/06 10:36:32;;;;;;;9.20;2.42;;;14.70;99.90;;;;;;5036530;28;20055;-73
2023/05/06 10:39:00;;;;;;;9.70;2.03;;;14.70;99.90;;;;;;5058018;28;20823;-71
2023/05/06 10:41:28;;;;;;;7.20;1.67;;;14.50;99.90;;;;;;5058824;28;20032;-70
2023/05/06 10:43:58;;;;;;;6.00;1.90;;;14.50;99.90;;;;;;5060419;28;20105;-72
2023/05/06 10:46:25;;;;;;;8.73;2.10;;;14.70;99.90;;;;;;5058027;28;20122;-70
2023/05/06 10:49:03;;;;;;;8.98;1.70;;;14.50;99.90;;;;;;5059235;28;20036;-71
2023/05/06 10:51:30;;;;;;;10.32;1.98;;;14.70;99.90;;;;;;5059537;28;20028;-70
2023/05/06 10:54:08;;;;;;;12.43;1.95;;;14.70;99.90;;;;;;5040475;28;20039;-70
2023/05/06 10:56:54;;;;;;;10.13;1.70;;;14.80;99.90;;;;;;5061398;28;20687;-70
2023/05/06 10:59:21;;;;;;;7.07;1.50;;;14.80;99.90;;;;;;5058623;28;20067;-70
2023/05/06 11:02:03;;;;;;;8.77;2.00;;;14.70;99.90;;;;;;5059293;28;20024;-70
2023/05/06 11:04:30;;;;;;;7.50;1.58;;;14.70;99.90;;;;;;5041419;28;20480;-71
2023/05/06 11:07:13;;;;;;;8.85;1.50;;;14.80;99.90;;;;;;5059188;28;20423;-70
2023/05/06 11:10:00;;;;;;;6.40;1.15;;;14.80;99.90;;;;;;5060296;28;20028;-70
2023/05/06 11:12:49;;;;;;;3.95;1.40;;;14.50;99.90;;;;;;4686750;28;9999993;-70
2023/05/06 11:15:20;;;;;;;5.07;1.15;;;14.40;99.90;;;;;;5068128;28;20048;-72
2023/05/06 11:17:45;;;;;;;4.18;0.98;;;14.40;99.90;;;;;;5054113;28;20024;-72
2023/05/06 11:20:22;;;;;;;3.85;1.02;;;14.40;99.90;;;;;;5038759;28;20051;-72
2023/05/06 11:22:48;;;;;;;6.57;1.20;;;14.50;99.90;;;;;;5058126;28;20028;-72
2023/05/06 11:25:34;;;;;;;1.27;0.80;;;14.60;99.90;;;;;;5054660;28;20417;-72
2023/05/06 11:28:00;;;;;;;4.90;1.40;;;14.80;99.90;;;;;;5054938;28;20036;-72
2023/05/06 11:30:25;;;;;;;2.50;0.77;;;14.90;99.90;;;;;;5053581;28;20425;-73
2023/05/06 11:32:54;;;;;;;3.38;1.00;;;14.80;99.90;;;;;;5053389;28;20036;-72
2023/05/06 11:35:21;;;;;;;5.28;1.33;;;14.60;99.90;;;;;;5057767;28;20036;-72
2023/05/06 11:37:47;;;;;;;4.88;1.33;;;14.40;99.90;;;;;;5056373;28;20440;-72
2023/05/06 11:40:14;;;;;;;5.78;1.45;;;14.30;99.90;;;;;;5037648;28;20039;-73
2023/05/06 11:42:40;;;;;;;3.45;1.15;;;14.30;99.90;;;;;;5057626;28;20291;-72
2023/05/06 11:45:06;;;;;;;3.92;1.30;;;14.40;99.90;;;;;;5037737;28;20173;-72
2023/05/06 11:47:32;;;;;;;3.33;1.30;;;14.20;99.90;;;;;;5055768;28;20445;-72
2023/05/06 11:49:58;;;;;;;4.65;1.52;;;14.20;99.90;;;;;;5037250;28;20035;-72
2023/05/06 11:52:23;;;;;;;2.97;1.23;;;14.20;99.90;;;;;;5056740;28;20275;-72
2023/05/06 11:54:52;;;;;;;5.47;1.30;;;14.10;99.90;;;;;;5056651;28;20093;-72
2023/05/06 11:57:19;;;;;;;4.85;1.40;;;13.90;99.90;;;;;;5055707;28;20028;-72
2023/05/06 11:59:45;;;;;;;7.20;1.30;;;13.90;99.90;;;;;;5056170;28;20042;-72
2023/05/06 12:02:13;;;;;;;5.07;1.40;;;14.00;99.90;;;;;;5054707;28;20487;-71
2023/05/06 12:04:40;;;;;;;5.78;1.50;;;14.00;99.90;;;;;;5058595;28;20085;-72
2023/05/06 12:07:08;;;;;;;8.63;1.60;;;14.20;99.90;;;;;;5055828;28;20038;-72
2023/05/06 12:09:35;;;;;;;9.50;1.60;;;14.20;99.90;;;;;;5037437;28;20033;-72
2023/05/06 12:12:02;;;;;;;10.30;1.65;;;14.20;99.90;;;;;;5056748;28;20025;-72
2023/05/06 12:14:28;;;;;;;6.78;1.40;;;14.20;99.90;;;;;;5055849;28;20044;-72
2023/05/06 12:16:54;;;;;;;5.78;1.55;;;14.30;99.90;;;;;;5054627;28;20523;-72
2023/05/06 12:19:21;;;;;;;4.53;1.42;;;14.50;99.90;;;;;;5036876;28;20428;-72
2023/05/06 12:21:46;;;;;;;7.03;1.48;;;14.60;99.90;;;;;;5063705;28;20346;-72
2023/05/06 12:24:12;;;;;;;4.32;1.38;;;14.70;99.90;;;;;;5065590;28;20166;-72
2023/05/06 12:26:46;;;;;;;6.10;1.40;;;14.70;99.90;;;;;;5037926;28;20442;-72
2023/05/06 12:29:17;;;;;;;5.13;1.67;;;14.50;99.90;;;;;;5055300;28;20025;-72
2023/05/06 12:31:48;;;;;;;8.13;1.27;;;14.40;99.90;;;;;;5052819;28;20058;-71
2023/05/06 12:34:17;;;;;;;4.60;1.40;;;14.10;99.90;;;;;;5054729;28;20024;-72